sensor_id;sensor_type;location;lat;lon;timestamp;P1;durP1;ratioP1;P2;durP2;ratioP2
33327;SDS011;19692;52.998;9.116;2023-09-12T00:00:16;62.57;;;44.83;;
33327;SDS011;19692;52.998;9.116;2023-09-12T00:02:41;58.13;;;44.50;;
33327;SDS011;19692;52.998;9.116;2023-09-12T00:05:07;57.27;;;45.10;;
33327;SDS011;19692;52.998;9.116;2023-09-12T00:07:35;65.43;;;45.60;;
33327;SDS011;19692;52.998;9.116;2023-09-12T00:10:01;63.40;;;45.97;;
33327;SDS011;19692;52.998;9.116;2023-09-12T00:12:28;61.33;;;46.30;;
33327;SDS011;19692;52.998;9.116;2023-09-12T00:14:54;60.70;;;45.23;;
33327;SDS011;19692;52.998;9.116;2023-09-12T00:17:20;55.47;;;43.43;;
33327;SDS011;19692;52.998;9.116;2023-09-12T00:19:45;54.60;;;44.53;;
33327;SDS011;19692;52.998;9.116;2023-09-12T00:22:11;61.83;;;46.00;;
33327;SDS011;19692;52.998;9.116;2023-09-12T00:24:37;58.77;;;46.03;;
33327;SDS011;19692;52.998;9.116;2023-09-12T00:27:03;66.43;;;48.93;;
33327;SDS011;19692;52.998;9.116;2023-09-12T00:29:29;64.57;;;47.13;;
33327;SDS011;19692;52.998;9.116;2023-09-12T00:31:55;71.13;;;49.33;;
33327;SDS011;19692;52.998;9.116;2023-09-12T00:34:21;69.60;;;48.13;;
33327;SDS011;19692;52.998;9.116;2023-09-12T00:36:47;69.83;;;50.00;;
33327;SDS011;19692;52.998;9.116;2023-09-12T00:39:12;73.07;;;50.90;;
33327;SDS011;19692;52.998;9.116;2023-09-12T00:41:38;68.70;;;49.67;;
33327;SDS011;19692;52.998;9.116;2023-09-12T00:44:04;71.37;;;51.10;;
33327;SDS011;19692;52.998;9.116;2023-09-12T00:46:30;70.43;;;49.73;;
33327;SDS011;19692;52.998;9.116;2023-09-12T00:48:57;68.50;;;50.27;;
33327;SDS011;19692;52.998;9.116;2023-09-12T00:51:24;63.20;;;48.87;;
33327;SDS011;19692;52.998;9.116;2023-09-12T00:53:51;70.83;;;49.47;;
33327;SDS011;19692;52.998;9.116;2023-09-12T00:56:19;60.47;;;47.20;;
33327;SDS011;19692;52.998;9.116;2023-09-12T00:58:44;64.93;;;50.47;;
33327;SDS011;19692;52.998;9.116;2023-09-12T01:01:11;66.60;;;49.17;;
33327;SDS011;19692;52.998;9.116;2023-09-12T01:03:36;71.17;;;48.83;;
33327;SDS011;19692;52.998;9.116;2023-09-12T01:06:02;67.37;;;51.27;;
33327;SDS011;19692;52.998;9.116;2023-09-12T01:08:30;66.57;;;50.00;;
33327;SDS011;19692;52.998;9.116;2023-09-12T01:10:56;66.40;;;49.03;;
33327;SDS011;19692;52.998;9.116;2023-09-12T01:13:23;64.70;;;49.43;;
33327;SDS011;19692;52.998;9.116;2023-09-12T01:15:49;66.97;;;49.60;;
33327;SDS011;19692;52.998;9.116;2023-09-12T01:18:14;66.67;;;49.50;;
33327;SDS011;19692;52.998;9.116;2023-09-12T01:20:41;73.23;;;50.40;;
33327;SDS011;19692;52.998;9.116;2023-09-12T01:23:36;79.80;;;52.77;;
33327;SDS011;19692;52.998;9.116;2023-09-12T01:26:36;71.73;;;52.87;;
33327;SDS011;19692;52.998;9.116;2023-09-12T01:29:23;84.53;;;54.47;;
33327;SDS011;19692;52.998;9.116;2023-09-12T01:31:50;79.20;;;53.40;;
33327;SDS011;19692;52.998;9.116;2023-09-12T01:34:17;77.10;;;54.10;;
33327;SDS011;19692;52.998;9.116;2023-09-12T01:36:44;84.33;;;55.30;;
33327;SDS011;19692;52.998;9.116;2023-09-12T01:39:09;82.13;;;55.97;;
33327;SDS011;19692;52.998;9.116;2023-09-12T01:41:38;80.37;;;54.33;;
33327;SDS011;19692;52.998;9.116;2023-09-12T01:44:08;83.47;;;55.60;;
33327;SDS011;19692;52.998;9.116;2023-09-12T01:46:35;81.20;;;55.23;;
33327;SDS011;19692;52.998;9.116;2023-09-12T01:49:02;75.93;;;56.37;;
33327;SDS011;19692;52.998;9.116;2023-09-12T01:51:30;87.60;;;57.40;;
33327;SDS011;19692;52.998;9.116;2023-09-12T01:53:56;82.40;;;56.70;;
33327;SDS011;19692;52.998;9.116;2023-09-12T01:56:23;83.37;;;56.33;;
33327;SDS011;19692;52.998;9.116;2023-09-12T01:58:50;83.27;;;54.77;;
33327;SDS011;19692;52.998;9.116;2023-09-12T02:01:16;85.80;;;57.17;;
33327;SDS011;19692;52.998;9.116;2023-09-12T02:03:41;85.97;;;55.77;;
33327;SDS011;19692;52.998;9.116;2023-09-12T02:06:07;84.47;;;55.77;;
33327;SDS011;19692;52.998;9.116;2023-09-12T02:08:33;81.40;;;57.00;;
33327;SDS011;19692;52.998;9.116;2023-09-12T02:10:59;88.63;;;60.40;;
33327;SDS011;19692;52.998;9.116;2023-09-12T02:13:24;92.80;;;60.60;;
33327;SDS011;19692;52.998;9.116;2023-09-12T02:15:50;84.17;;;57.90;;
33327;SDS011;19692;52.998;9.116;2023-09-12T02:18:25;86.07;;;57.20;;
33327;SDS011;19692;52.998;9.116;2023-09-12T02:20:50;81.17;;;57.00;;
33327;SDS011;19692;52.998;9.116;2023-09-12T02:23:16;82.00;;;56.73;;
33327;SDS011;19692;52.998;9.116;2023-09-12T02:25:42;81.20;;;56.83;;
33327;SDS011;19692;52.998;9.116;2023-09-12T02:28:08;85.00;;;59.43;;
33327;SDS011;19692;52.998;9.116;2023-09-12T02:30:34;83.33;;;58.00;;
33327;SDS011;19692;52.998;9.116;2023-09-12T02:33:03;81.97;;;57.77;;
33327;SDS011;19692;52.998;9.116;2023-09-12T02:35:29;81.47;;;57.37;;
33327;SDS011;19692;52.998;9.116;2023-09-12T02:37:55;81.00;;;56.07;;
33327;SDS011;19692;52.998;9.116;2023-09-12T02:40:21;78.13;;;54.90;;
33327;SDS011;19692;52.998;9.116;2023-09-12T02:42:47;82.40;;;57.23;;
33327;SDS011;19692;52.998;9.116;2023-09-12T02:45:12;86.50;;;57.50;;
33327;SDS011;19692;52.998;9.116;2023-09-12T02:47:38;84.90;;;55.97;;
33327;SDS011;19692;52.998;9.116;2023-09-12T02:50:04;79.87;;;55.30;;
33327;SDS011;19692;52.998;9.116;2023-09-12T02:52:30;86.17;;;57.80;;
33327;SDS011;19692;52.998;9.116;2023-09-12T02:54:56;93.03;;;59.07;;
33327;SDS011;19692;52.998;9.116;2023-09-12T02:57:21;86.37;;;59.17;;
33327;SDS011;19692;52.998;9.116;2023-09-12T02:59:47;87.97;;;57.80;;
33327;SDS011;19692;52.998;9.116;2023-09-12T03:02:13;94.80;;;60.13;;
33327;SDS011;19692;52.998;9.116;2023-09-12T03:04:39;88.97;;;58.33;;
33327;SDS011;19692;52.998;9.116;2023-09-12T03:07:04;83.10;;;58.17;;
33327;SDS011;19692;52.998;9.116;2023-09-12T03:09:30;93.47;;;59.30;;
33327;SDS011;19692;52.998;9.116;2023-09-12T03:11:56;89.10;;;61.77;;
33327;SDS011;19692;52.998;9.116;2023-09-12T03:14:21;98.17;;;61.27;;
33327;SDS011;19692;52.998;9.116;2023-09-12T03:16:47;96.10;;;63.17;;
33327;SDS011;19692;52.998;9.116;2023-09-12T03:19:13;93.03;;;61.47;;
33327;SDS011;19692;52.998;9.116;2023-09-12T03:21:39;91.87;;;61.77;;
33327;SDS011;19692;52.998;9.116;2023-09-12T03:24:04;85.57;;;59.93;;
33327;SDS011;19692;52.998;9.116;2023-09-12T03:26:30;98.83;;;62.50;;
33327;SDS011;19692;52.998;9.116;2023-09-12T03:28:59;91.57;;;62.30;;
33327;SDS011;19692;52.998;9.116;2023-09-12T03:31:25;91.83;;;61.67;;
33327;SDS011;19692;52.998;9.116;2023-09-12T03:33:50;91.20;;;60.90;;
33327;SDS011;19692;52.998;9.116;2023-09-12T03:36:16;88.30;;;62.00;;
33327;SDS011;19692;52.998;9.116;2023-09-12T03:38:42;91.30;;;60.47;;
33327;SDS011;19692;52.998;9.116;2023-09-12T03:41:08;87.93;;;61.27;;
33327;SDS011;19692;52.998;9.116;2023-09-12T03:43:34;88.77;;;59.00;;
33327;SDS011;19692;52.998;9.116;2023-09-12T03:46:00;79.37;;;58.40;;
33327;SDS011;19692;52.998;9.116;2023-09-12T03:48:26;78.20;;;57.17;;
33327;SDS011;19692;52.998;9.116;2023-09-12T03:50:51;83.30;;;59.67;;
33327;SDS011;19692;52.998;9.116;2023-09-12T03:53:17;74.87;;;56.53;;
33327;SDS011;19692;52.998;9.116;2023-09-12T03:55:43;73.87;;;54.87;;
33327;SDS011;19692;52.998;9.116;2023-09-12T03:58:09;74.30;;;55.40;;
33327;SDS011;19692;52.998;9.116;2023-09-12T04:00:34;79.83;;;57.33;;
33327;SDS011;19692;52.998;9.116;2023-09-12T04:03:00;80.73;;;57.93;;
33327;SDS011;19692;52.998;9.116;2023-09-12T04:05:26;76.27;;;56.37;;
33327;SDS011;19692;52.998;9.116;2023-09-12T04:07:52;75.33;;;56.53;;
33327;SDS011;19692;52.998;9.116;2023-09-12T04:10:19;81.50;;;58.20;;
33327;SDS011;19692;52.998;9.116;2023-09-12T04:12:45;80.83;;;58.57;;
33327;SDS011;19692;52.998;9.116;2023-09-12T04:15:11;81.60;;;57.70;;
33327;SDS011;19692;52.998;9.116;2023-09-12T04:17:37;73.07;;;57.10;;
33327;SDS011;19692;52.998;9.116;2023-09-12T04:20:03;76.03;;;55.67;;
33327;SDS011;19692;52.998;9.116;2023-09-12T04:22:29;73.10;;;56.10;;
33327;SDS011;19692;52.998;9.116;2023-09-12T04:24:55;78.03;;;55.80;;
33327;SDS011;19692;52.998;9.116;2023-09-12T04:27:21;76.20;;;56.80;;
33327;SDS011;19692;52.998;9.116;2023-09-12T04:29:47;76.80;;;56.30;;
33327;SDS011;19692;52.998;9.116;2023-09-12T04:32:12;73.80;;;55.83;;
33327;SDS011;19692;52.998;9.116;2023-09-12T04:34:38;76.53;;;56.67;;
33327;SDS011;19692;52.998;9.116;2023-09-12T04:37:09;73.83;;;57.73;;
33327;SDS011;19692;52.998;9.116;2023-09-12T04:39:35;74.77;;;57.43;;
33327;SDS011;19692;52.998;9.116;2023-09-12T04:42:01;80.23;;;59.00;;
33327;SDS011;19692;52.998;9.116;2023-09-12T04:44:29;78.40;;;58.47;;
33327;SDS011;19692;52.998;9.116;2023-09-12T04:47:00;75.50;;;56.87;;
33327;SDS011;19692;52.998;9.116;2023-09-12T04:49:26;75.40;;;55.77;;
33327;SDS011;19692;52.998;9.116;2023-09-12T04:51:52;69.53;;;54.13;;
33327;SDS011;19692;52.998;9.116;2023-09-12T04:54:18;72.83;;;56.00;;
33327;SDS011;19692;52.998;9.116;2023-09-12T04:56:44;68.03;;;52.57;;
33327;SDS011;19692;52.998;9.116;2023-09-12T04:59:10;75.37;;;55.07;;
33327;SDS011;19692;52.998;9.116;2023-09-12T05:01:35;69.13;;;53.53;;
33327;SDS011;19692;52.998;9.116;2023-09-12T05:04:01;68.47;;;52.70;;
33327;SDS011;19692;52.998;9.116;2023-09-12T05:06:28;71.07;;;55.30;;
33327;SDS011;19692;52.998;9.116;2023-09-12T05:08:54;77.87;;;57.53;;
33327;SDS011;19692;52.998;9.116;2023-09-12T05:11:20;71.33;;;56.27;;
33327;SDS011;19692;52.998;9.116;2023-09-12T05:13:48;71.67;;;55.30;;
33327;SDS011;19692;52.998;9.116;2023-09-12T05:16:13;68.73;;;53.30;;
33327;SDS011;19692;52.998;9.116;2023-09-12T05:18:39;72.53;;;56.93;;
33327;SDS011;19692;52.998;9.116;2023-09-12T05:21:05;75.73;;;57.60;;
33327;SDS011;19692;52.998;9.116;2023-09-12T05:23:31;74.57;;;58.07;;
33327;SDS011;19692;52.998;9.116;2023-09-12T05:25:57;78.77;;;59.87;;
33327;SDS011;19692;52.998;9.116;2023-09-12T05:28:22;79.83;;;58.37;;
33327;SDS011;19692;52.998;9.116;2023-09-12T05:30:48;83.73;;;60.67;;
33327;SDS011;19692;52.998;9.116;2023-09-12T05:33:14;79.77;;;59.87;;
33327;SDS011;19692;52.998;9.116;2023-09-12T05:35:40;75.80;;;58.50;;
33327;SDS011;19692;52.998;9.116;2023-09-12T05:38:05;77.87;;;59.43;;
33327;SDS011;19692;52.998;9.116;2023-09-12T05:40:31;76.93;;;57.90;;
33327;SDS011;19692;52.998;9.116;2023-09-12T05:42:57;70.90;;;56.37;;
33327;SDS011;19692;52.998;9.116;2023-09-12T05:45:23;65.00;;;54.80;;
33327;SDS011;19692;52.998;9.116;2023-09-12T05:47:49;68.73;;;57.10;;
33327;SDS011;19692;52.998;9.116;2023-09-12T05:50:15;71.27;;;57.47;;
33327;SDS011;19692;52.998;9.116;2023-09-12T05:52:41;72.33;;;57.87;;
33327;SDS011;19692;52.998;9.116;2023-09-12T05:55:09;77.33;;;58.67;;
33327;SDS011;19692;52.998;9.116;2023-09-12T05:57:35;75.63;;;58.13;;
33327;SDS011;19692;52.998;9.116;2023-09-12T06:00:01;69.97;;;55.77;;
33327;SDS011;19692;52.998;9.116;2023-09-12T06:02:30;71.10;;;58.10;;
33327;SDS011;19692;52.998;9.116;2023-09-12T06:04:58;74.00;;;57.97;;
33327;SDS011;19692;52.998;9.116;2023-09-12T06:07:23;74.67;;;58.77;;
33327;SDS011;19692;52.998;9.116;2023-09-12T06:09:50;71.53;;;58.33;;
33327;SDS011;19692;52.998;9.116;2023-09-12T06:12:16;69.60;;;57.13;;
33327;SDS011;19692;52.998;9.116;2023-09-12T06:14:41;68.53;;;55.40;;
33327;SDS011;19692;52.998;9.116;2023-09-12T06:17:07;67.87;;;56.53;;
33327;SDS011;19692;52.998;9.116;2023-09-12T06:19:33;69.37;;;57.27;;
33327;SDS011;19692;52.998;9.116;2023-09-12T06:21:59;65.97;;;53.03;;
33327;SDS011;19692;52.998;9.116;2023-09-12T06:24:25;61.73;;;53.43;;
33327;SDS011;19692;52.998;9.116;2023-09-12T06:26:51;70.23;;;56.43;;
33327;SDS011;19692;52.998;9.116;2023-09-12T06:29:17;64.20;;;54.23;;
33327;SDS011;19692;52.998;9.116;2023-09-12T06:31:42;60.57;;;53.27;;
33327;SDS011;19692;52.998;9.116;2023-09-12T06:34:08;65.57;;;54.87;;
33327;SDS011;19692;52.998;9.116;2023-09-12T06:36:37;63.43;;;53.70;;
33327;SDS011;19692;52.998;9.116;2023-09-12T06:39:15;65.70;;;54.40;;
33327;SDS011;19692;52.998;9.116;2023-09-12T06:41:41;61.50;;;53.93;;
33327;SDS011;19692;52.998;9.116;2023-09-12T06:44:07;61.70;;;53.63;;
33327;SDS011;19692;52.998;9.116;2023-09-12T06:46:33;67.90;;;55.93;;
33327;SDS011;19692;52.998;9.116;2023-09-12T06:49:02;63.07;;;53.90;;
33327;SDS011;19692;52.998;9.116;2023-09-12T06:51:28;65.73;;;54.83;;
33327;SDS011;19692;52.998;9.116;2023-09-12T06:53:57;63.63;;;54.10;;
33327;SDS011;19692;52.998;9.116;2023-09-12T06:56:48;66.90;;;53.63;;
33327;SDS011;19692;52.998;9.116;2023-09-12T06:59:14;62.10;;;53.87;;
33327;SDS011;19692;52.998;9.116;2023-09-12T07:01:58;61.17;;;52.43;;
33327;SDS011;19692;52.998;9.116;2023-09-12T07:05:04;59.53;;;52.87;;
33327;SDS011;19692;52.998;9.116;2023-09-12T07:07:30;60.20;;;52.33;;
33327;SDS011;19692;52.998;9.116;2023-09-12T07:09:57;60.70;;;53.10;;
33327;SDS011;19692;52.998;9.116;2023-09-12T07:12:24;63.57;;;53.67;;
33327;SDS011;19692;52.998;9.116;2023-09-12T07:14:54;63.80;;;54.60;;
33327;SDS011;19692;52.998;9.116;2023-09-12T07:17:21;63.10;;;53.13;;
33327;SDS011;19692;52.998;9.116;2023-09-12T07:19:47;62.30;;;53.63;;
33327;SDS011;19692;52.998;9.116;2023-09-12T07:26:14;65.87;;;53.60;;
33327;SDS011;19692;52.998;9.116;2023-09-12T07:28:52;58.47;;;51.47;;
33327;SDS011;19692;52.998;9.116;2023-09-12T07:31:33;60.23;;;52.07;;
33327;SDS011;19692;52.998;9.116;2023-09-12T07:34:15;55.57;;;48.93;;
33327;SDS011;19692;52.998;9.116;2023-09-12T07:49:01;46.07;;;41.27;;
33327;SDS011;19692;52.998;9.116;2023-09-12T07:51:26;37.53;;;33.67;;
33327;SDS011;19692;52.998;9.116;2023-09-12T07:53:52;34.10;;;30.67;;
33327;SDS011;19692;52.998;9.116;2023-09-12T07:56:18;28.10;;;25.30;;
33327;SDS011;19692;52.998;9.116;2023-09-12T07:58:44;28.10;;;25.30;;
33327;SDS011;19692;52.998;9.116;2023-09-12T08:01:09;24.23;;;21.93;;
33327;SDS011;19692;52.998;9.116;2023-09-12T08:03:36;23.97;;;21.77;;
33327;SDS011;19692;52.998;9.116;2023-09-12T08:06:03;24.17;;;21.87;;
33327;SDS011;19692;52.998;9.116;2023-09-12T08:08:48;23.10;;;21.00;;
33327;SDS011;19692;52.998;9.116;2023-09-12T08:11:33;23.07;;;21.00;;
33327;SDS011;19692;52.998;9.116;2023-09-12T08:13:58;22.63;;;20.50;;
33327;SDS011;19692;52.998;9.116;2023-09-12T08:16:24;22.00;;;19.87;;
33327;SDS011;19692;52.998;9.116;2023-09-12T08:18:50;21.80;;;19.50;;
33327;SDS011;19692;52.998;9.116;2023-09-12T08:21:16;22.57;;;20.37;;
33327;SDS011;19692;52.998;9.116;2023-09-12T08:23:41;22.77;;;20.73;;
33327;SDS011;19692;52.998;9.116;2023-09-12T08:26:07;25.40;;;22.80;;
33327;SDS011;19692;52.998;9.116;2023-09-12T08:28:34;27.60;;;25.10;;
33327;SDS011;19692;52.998;9.116;2023-09-12T08:31:00;27.23;;;24.67;;
33327;SDS011;19692;52.998;9.116;2023-09-12T08:33:25;30.27;;;27.13;;
33327;SDS011;19692;52.998;9.116;2023-09-12T08:35:51;29.93;;;27.03;;
33327;SDS011;19692;52.998;9.116;2023-09-12T08:38:17;28.30;;;25.60;;
33327;SDS011;19692;52.998;9.116;2023-09-12T08:40:52;28.37;;;25.63;;
33327;SDS011;19692;52.998;9.116;2023-09-12T08:43:18;28.37;;;25.77;;
33327;SDS011;19692;52.998;9.116;2023-09-12T08:45:45;26.63;;;24.23;;
33327;SDS011;19692;52.998;9.116;2023-09-12T08:48:12;28.77;;;26.07;;
33327;SDS011;19692;52.998;9.116;2023-09-12T08:50:38;29.10;;;26.40;;
33327;SDS011;19692;52.998;9.116;2023-09-12T08:53:04;28.77;;;26.07;;
33327;SDS011;19692;52.998;9.116;2023-09-12T08:55:33;27.07;;;24.43;;
33327;SDS011;19692;52.998;9.116;2023-09-12T08:58:01;23.83;;;21.53;;
33327;SDS011;19692;52.998;9.116;2023-09-12T09:00:28;24.90;;;22.60;;
33327;SDS011;19692;52.998;9.116;2023-09-12T09:02:55;23.97;;;21.57;;
33327;SDS011;19692;52.998;9.116;2023-09-12T09:05:21;21.67;;;19.47;;
33327;SDS011;19692;52.998;9.116;2023-09-12T09:07:48;22.37;;;20.17;;
33327;SDS011;19692;52.998;9.116;2023-09-12T09:10:16;20.20;;;18.30;;
33327;SDS011;19692;52.998;9.116;2023-09-12T09:12:43;19.73;;;17.83;;
33327;SDS011;19692;52.998;9.116;2023-09-12T09:17:48;18.60;;;16.90;;
33327;SDS011;19692;52.998;9.116;2023-09-12T09:20:31;19.37;;;17.40;;
33327;SDS011;19692;52.998;9.116;2023-09-12T09:23:06;19.17;;;17.33;;
33327;SDS011;19692;52.998;9.116;2023-09-12T09:25:41;19.27;;;17.47;;
33327;SDS011;19692;52.998;9.116;2023-09-12T09:28:18;19.20;;;17.33;;
33327;SDS011;19692;52.998;9.116;2023-09-12T09:30:45;19.83;;;18.03;;
33327;SDS011;19692;52.998;9.116;2023-09-12T09:33:13;19.23;;;17.33;;
33327;SDS011;19692;52.998;9.116;2023-09-12T09:35:41;19.47;;;17.67;;
33327;SDS011;19692;52.998;9.116;2023-09-12T09:38:07;21.13;;;18.93;;
33327;SDS011;19692;52.998;9.116;2023-09-12T09:40:34;21.13;;;19.23;;
33327;SDS011;19692;52.998;9.116;2023-09-12T09:43:01;19.73;;;18.03;;
33327;SDS011;19692;52.998;9.116;2023-09-12T09:45:29;20.37;;;18.57;;
33327;SDS011;19692;52.998;9.116;2023-09-12T09:47:57;20.37;;;18.50;;
33327;SDS011;19692;52.998;9.116;2023-09-12T09:50:29;21.53;;;19.50;;
33327;SDS011;19692;52.998;9.116;2023-09-12T09:52:54;21.33;;;19.43;;
33327;SDS011;19692;52.998;9.116;2023-09-12T09:55:21;20.17;;;18.37;;
33327;SDS011;19692;52.998;9.116;2023-09-12T09:57:48;20.37;;;18.47;;
33327;SDS011;19692;52.998;9.116;2023-09-12T10:00:17;20.40;;;18.50;;
33327;SDS011;19692;52.998;9.116;2023-09-12T10:02:45;19.87;;;18.03;;
33327;SDS011;19692;52.998;9.116;2023-09-12T10:05:15;20.43;;;18.53;;
33327;SDS011;19692;52.998;9.116;2023-09-12T10:07:42;18.70;;;17.07;;
33327;SDS011;19692;52.998;9.116;2023-09-12T10:10:14;19.27;;;17.57;;
33327;SDS011;19692;52.998;9.116;2023-09-12T10:12:48;18.53;;;16.60;;
33327;SDS011;19692;52.998;9.116;2023-09-12T10:15:17;18.53;;;16.73;;
33327;SDS011;19692;52.998;9.116;2023-09-12T10:17:46;19.70;;;17.80;;
33327;SDS011;19692;52.998;9.116;2023-09-12T10:20:25;17.70;;;15.80;;
33327;SDS011;19692;52.998;9.116;2023-09-12T10:23:03;18.53;;;16.83;;
33327;SDS011;19692;52.998;9.116;2023-09-12T10:25:37;17.87;;;16.07;;
33327;SDS011;19692;52.998;9.116;2023-09-12T10:28:04;18.37;;;15.83;;
33327;SDS011;19692;52.998;9.116;2023-09-12T10:30:31;17.50;;;15.90;;
33327;SDS011;19692;52.998;9.116;2023-09-12T10:33:00;18.77;;;16.23;;
33327;SDS011;19692;52.998;9.116;2023-09-12T10:35:29;17.60;;;15.83;;
33327;SDS011;19692;52.998;9.116;2023-09-12T10:37:58;18.23;;;16.53;;
33327;SDS011;19692;52.998;9.116;2023-09-12T10:40:28;17.00;;;15.43;;
33327;SDS011;19692;52.998;9.116;2023-09-12T10:42:56;18.90;;;17.00;;
33327;SDS011;19692;52.998;9.116;2023-09-12T10:45:22;19.07;;;17.00;;
33327;SDS011;19692;52.998;9.116;2023-09-12T10:47:48;18.43;;;16.63;;
33327;SDS011;19692;52.998;9.116;2023-09-12T10:50:14;17.37;;;15.77;;
33327;SDS011;19692;52.998;9.116;2023-09-12T10:52:40;18.37;;;16.53;;
33327;SDS011;19692;52.998;9.116;2023-09-12T10:55:06;18.50;;;16.67;;
33327;SDS011;19692;52.998;9.116;2023-09-12T10:57:33;18.27;;;16.43;;
33327;SDS011;19692;52.998;9.116;2023-09-12T11:02:34;18.07;;;16.33;;
33327;SDS011;19692;52.998;9.116;2023-09-12T11:05:50;18.40;;;16.47;;
33327;SDS011;19692;52.998;9.116;2023-09-12T11:07:59;18.53;;;16.83;;
33327;SDS011;19692;52.998;9.116;2023-09-12T11:10:26;19.00;;;17.23;;
33327;SDS011;19692;52.998;9.116;2023-09-12T11:12:54;17.87;;;16.13;;
33327;SDS011;19692;52.998;9.116;2023-09-12T11:15:22;16.90;;;15.30;;
33327;SDS011;19692;52.998;9.116;2023-09-12T11:18:01;18.03;;;16.43;;
33327;SDS011;19692;52.998;9.116;2023-09-12T11:20:50;17.53;;;15.67;;
33327;SDS011;19692;52.998;9.116;2023-09-12T11:23:18;18.67;;;16.70;;
33327;SDS011;19692;52.998;9.116;2023-09-12T11:25:44;18.17;;;16.47;;
33327;SDS011;19692;52.998;9.116;2023-09-12T11:28:10;19.27;;;17.40;;
33327;SDS011;19692;52.998;9.116;2023-09-12T11:30:36;20.53;;;18.47;;
33327;SDS011;19692;52.998;9.116;2023-09-12T11:33:05;19.97;;;17.97;;
33327;SDS011;19692;52.998;9.116;2023-09-12T11:35:36;20.03;;;18.23;;
33327;SDS011;19692;52.998;9.116;2023-09-12T11:38:03;21.03;;;19.10;;
33327;SDS011;19692;52.998;9.116;2023-09-12T11:42:57;20.60;;;18.60;;
33327;SDS011;19692;52.998;9.116;2023-09-12T11:45:23;21.13;;;19.03;;
33327;SDS011;19692;52.998;9.116;2023-09-12T11:47:49;21.77;;;19.73;;
33327;SDS011;19692;52.998;9.116;2023-09-12T11:50:34;21.13;;;19.23;;
33327;SDS011;19692;52.998;9.116;2023-09-12T11:53:10;21.47;;;19.37;;
33327;SDS011;19692;52.998;9.116;2023-09-12T11:55:43;22.27;;;20.17;;
33327;SDS011;19692;52.998;9.116;2023-09-12T11:58:12;22.93;;;20.83;;
33327;SDS011;19692;52.998;9.116;2023-09-12T12:00:44;23.83;;;21.33;;
33327;SDS011;19692;52.998;9.116;2023-09-12T12:03:18;24.33;;;21.83;;
33327;SDS011;19692;52.998;9.116;2023-09-12T12:05:46;23.47;;;21.17;;
33327;SDS011;19692;52.998;9.116;2023-09-12T12:08:12;25.37;;;23.07;;
33327;SDS011;19692;52.998;9.116;2023-09-12T12:10:40;25.37;;;22.73;;
33327;SDS011;19692;52.998;9.116;2023-09-12T12:13:27;24.53;;;22.00;;
33327;SDS011;19692;52.998;9.116;2023-09-12T12:15:53;25.00;;;22.53;;
33327;SDS011;19692;52.998;9.116;2023-09-12T12:18:18;23.23;;;21.13;;
33327;SDS011;19692;52.998;9.116;2023-09-12T12:20:44;23.77;;;21.57;;
33327;SDS011;19692;52.998;9.116;2023-09-12T12:23:10;23.00;;;20.63;;
33327;SDS011;19692;52.998;9.116;2023-09-12T12:25:36;23.97;;;21.87;;
33327;SDS011;19692;52.998;9.116;2023-09-12T12:28:02;24.93;;;22.73;;
33327;SDS011;19692;52.998;9.116;2023-09-12T12:30:33;23.53;;;21.53;;
33327;SDS011;19692;52.998;9.116;2023-09-12T12:33:00;22.63;;;20.63;;
33327;SDS011;19692;52.998;9.116;2023-09-12T12:35:32;23.60;;;21.47;;
33327;SDS011;19692;52.998;9.116;2023-09-12T12:37:58;22.90;;;20.90;;
33327;SDS011;19692;52.998;9.116;2023-09-12T12:40:24;23.90;;;21.87;;
33327;SDS011;19692;52.998;9.116;2023-09-12T12:42:50;26.50;;;24.10;;
33327;SDS011;19692;52.998;9.116;2023-09-12T12:45:16;25.43;;;23.03;;
33327;SDS011;19692;52.998;9.116;2023-09-12T12:47:54;25.00;;;22.60;;
33327;SDS011;19692;52.998;9.116;2023-09-12T12:50:24;23.17;;;21.07;;
33327;SDS011;19692;52.998;9.116;2023-09-12T12:52:50;22.37;;;20.27;;
33327;SDS011;19692;52.998;9.116;2023-09-12T12:55:16;21.47;;;19.57;;
33327;SDS011;19692;52.998;9.116;2023-09-12T12:57:43;21.83;;;20.03;;
33327;SDS011;19692;52.998;9.116;2023-09-12T13:00:10;20.80;;;19.07;;
33327;SDS011;19692;52.998;9.116;2023-09-12T13:02:41;20.03;;;18.23;;
33327;SDS011;19692;52.998;9.116;2023-09-12T13:05:21;19.80;;;18.10;;
33327;SDS011;19692;52.998;9.116;2023-09-12T13:07:51;19.00;;;17.20;;
33327;SDS011;19692;52.998;9.116;2023-09-12T13:10:18;18.33;;;16.73;;
33327;SDS011;19692;52.998;9.116;2023-09-12T13:12:48;17.77;;;16.17;;
33327;SDS011;19692;52.998;9.116;2023-09-12T13:15:14;17.60;;;16.17;;
33327;SDS011;19692;52.998;9.116;2023-09-12T13:17:42;16.93;;;15.50;;
33327;SDS011;19692;52.998;9.116;2023-09-12T13:20:09;17.57;;;15.97;;
33327;SDS011;19692;52.998;9.116;2023-09-12T13:22:35;17.77;;;16.27;;
33327;SDS011;19692;52.998;9.116;2023-09-12T13:25:02;17.10;;;15.63;;
33327;SDS011;19692;52.998;9.116;2023-09-12T13:27:29;17.37;;;15.87;;
33327;SDS011;19692;52.998;9.116;2023-09-12T13:29:55;15.40;;;13.93;;
33327;SDS011;19692;52.998;9.116;2023-09-12T13:32:20;13.80;;;12.53;;
33327;SDS011;19692;52.998;9.116;2023-09-12T13:34:46;12.57;;;11.47;;
33327;SDS011;19692;52.998;9.116;2023-09-12T13:37:12;11.77;;;10.67;;
33327;SDS011;19692;52.998;9.116;2023-09-12T13:39:38;10.40;;;9.40;;
33327;SDS011;19692;52.998;9.116;2023-09-12T13:42:05;10.87;;;9.77;;
33327;SDS011;19692;52.998;9.116;2023-09-12T13:44:33;10.77;;;9.70;;
33327;SDS011;19692;52.998;9.116;2023-09-12T13:46:59;10.57;;;9.63;;
33327;SDS011;19692;52.998;9.116;2023-09-12T13:49:25;10.10;;;9.20;;
33327;SDS011;19692;52.998;9.116;2023-09-12T13:51:50;9.43;;;8.67;;
33327;SDS011;19692;52.998;9.116;2023-09-12T13:54:16;10.13;;;9.23;;
33327;SDS011;19692;52.998;9.116;2023-09-12T13:56:42;9.63;;;8.73;;
33327;SDS011;19692;52.998;9.116;2023-09-12T13:59:08;9.50;;;8.57;;
33327;SDS011;19692;52.998;9.116;2023-09-12T14:01:34;8.97;;;8.17;;
33327;SDS011;19692;52.998;9.116;2023-09-12T14:04:00;10.23;;;8.33;;
33327;SDS011;19692;52.998;9.116;2023-09-12T14:06:29;9.90;;;8.97;;
33327;SDS011;19692;52.998;9.116;2023-09-12T14:08:56;8.33;;;7.63;;
33327;SDS011;19692;52.998;9.116;2023-09-12T14:11:22;8.73;;;7.93;;
33327;SDS011;19692;52.998;9.116;2023-09-12T14:13:48;8.43;;;7.63;;
33327;SDS011;19692;52.998;9.116;2023-09-12T14:16:13;8.00;;;7.30;;
33327;SDS011;19692;52.998;9.116;2023-09-12T14:18:39;8.70;;;7.90;;
33327;SDS011;19692;52.998;9.116;2023-09-12T14:21:05;8.90;;;8.10;;
33327;SDS011;19692;52.998;9.116;2023-09-12T14:23:31;8.40;;;7.60;;
33327;SDS011;19692;52.998;9.116;2023-09-12T14:25:57;8.60;;;7.90;;
33327;SDS011;19692;52.998;9.116;2023-09-12T14:28:23;8.73;;;7.90;;
33327;SDS011;19692;52.998;9.116;2023-09-12T14:30:48;9.07;;;8.17;;
33327;SDS011;19692;52.998;9.116;2023-09-12T14:33:15;9.70;;;9.00;;
33327;SDS011;19692;52.998;9.116;2023-09-12T14:35:42;9.70;;;8.87;;
33327;SDS011;19692;52.998;9.116;2023-09-12T14:38:08;10.23;;;9.27;;
33327;SDS011;19692;52.998;9.116;2023-09-12T14:40:34;9.27;;;8.50;;
33327;SDS011;19692;52.998;9.116;2023-09-12T14:43:00;10.23;;;9.43;;
33327;SDS011;19692;52.998;9.116;2023-09-12T14:45:27;10.80;;;9.80;;
33327;SDS011;19692;52.998;9.116;2023-09-12T14:47:53;10.10;;;9.13;;
33327;SDS011;19692;52.998;9.116;2023-09-12T14:50:20;10.37;;;9.37;;